createdAt,value
2018-11-13T00:00:24.981Z,16.55
2018-11-13T00:02:54.007Z,16.56
2018-11-13T00:05:23.004Z,16.58
2018-11-13T00:07:51.545Z,16.57
2018-11-13T00:10:33.853Z,16.57
2018-11-13T00:13:02.612Z,16.57
2018-11-13T00:15:31.028Z,16.58
2018-11-13T00:17:59.457Z,16.59
2018-11-13T00:20:27.930Z,16.58
2018-11-13T00:22:56.675Z,16.60
2018-11-13T00:25:25.101Z,16.58
2018-11-13T00:27:53.525Z,16.60
2018-11-13T00:30:23.479Z,16.59
2018-11-13T00:32:52.175Z,16.57
2018-11-13T00:35:21.247Z,16.55
2018-11-13T00:37:50.267Z,16.53
2018-11-13T00:40:19.252Z,16.51
2018-11-13T00:42:47.962Z,16.51
2018-11-13T00:45:16.452Z,16.51
2018-11-13T00:47:44.830Z,16.50
2018-11-13T00:50:16.158Z,16.50
2018-11-13T00:52:45.145Z,16.48
2018-11-13T00:55:13.717Z,16.49
2018-11-13T00:57:42.465Z,16.48
2018-11-13T01:00:14.575Z,16.47
2018-11-13T01:02:43.280Z,16.46
2018-11-13T01:05:13.544Z,16.46
2018-11-13T01:07:42.820Z,16.46
2018-11-13T01:10:13.594Z,16.46
2018-11-13T01:12:43.392Z,16.45
2018-11-13T01:15:13.357Z,16.45
2018-11-13T01:17:42.920Z,16.45
2018-11-13T01:20:11.550Z,16.45
2018-11-13T01:22:39.946Z,16.46
2018-11-13T01:25:09.835Z,16.45
2018-11-13T01:27:38.276Z,16.46
2018-11-13T01:30:08.959Z,16.46
2018-11-13T01:32:39.625Z,16.45
2018-11-13T01:35:10.151Z,16.43
2018-11-13T01:37:38.579Z,16.42
2018-11-13T01:40:17.234Z,16.43
2018-11-13T01:42:46.263Z,16.40
2018-11-13T01:45:15.851Z,16.40
2018-11-13T01:47:44.338Z,16.38
2018-11-13T01:50:13.660Z,16.39
2018-11-13T01:52:42.093Z,16.39
2018-11-13T01:55:11.901Z,16.38
2018-11-13T01:57:40.448Z,16.38
2018-11-13T02:00:15.817Z,16.39
2018-11-13T02:02:45.358Z,16.40
2018-11-13T02:05:13.822Z,16.40
2018-11-13T02:07:42.347Z,16.39
2018-11-13T02:10:11.025Z,16.38
2018-11-13T02:12:39.526Z,16.37
2018-11-13T02:15:08.835Z,16.37
2018-11-13T02:17:37.457Z,16.38
2018-11-13T02:20:09.353Z,16.39
2018-11-13T02:22:37.922Z,16.40
2018-11-13T02:25:09.295Z,16.41
2018-11-13T02:27:37.960Z,16.42
2018-11-13T02:30:08.438Z,16.42
2018-11-13T02:32:36.907Z,16.44
2018-11-13T02:35:06.661Z,16.45
2018-11-13T02:37:35.125Z,16.46
2018-11-13T02:40:03.894Z,16.46
2018-11-13T02:42:32.706Z,16.47
2018-11-13T02:45:01.345Z,16.47
2018-11-13T02:47:29.902Z,16.49
2018-11-13T02:49:58.349Z,16.49
2018-11-13T02:55:06.941Z,16.48
2018-11-13T02:57:35.416Z,16.49
2018-11-13T03:00:06.717Z,16.49
2018-11-13T03:02:35.141Z,16.47
2018-11-13T03:05:05.040Z,16.47
2018-11-13T03:07:33.459Z,16.48
2018-11-13T03:10:02.082Z,16.47
2018-11-13T03:12:30.694Z,16.46
2018-11-13T03:14:59.107Z,16.47
2018-11-13T03:17:27.549Z,16.47
2018-11-13T03:19:56.040Z,16.46
2018-11-13T03:22:24.485Z,16.46
2018-11-13T03:24:53.398Z,16.47
2018-11-13T03:27:21.855Z,16.47
2018-11-13T03:29:50.433Z,16.47
2018-11-13T03:32:18.924Z,16.47
2018-11-13T03:34:47.351Z,16.47
2018-11-13T03:37:16.089Z,16.47
2018-11-13T03:39:45.837Z,16.48
2018-11-13T03:42:14.273Z,16.48
2018-11-13T03:44:42.687Z,16.49
2018-11-13T03:47:11.092Z,16.50
2018-11-13T03:49:39.506Z,16.49
2018-11-13T03:52:08.012Z,16.49
2018-11-13T03:54:36.415Z,16.49
2018-11-13T03:57:04.956Z,16.49
2018-11-13T03:59:33.390Z,16.49
2018-11-13T04:02:02.063Z,16.49
2018-11-13T04:04:30.920Z,16.47
2018-11-13T04:06:59.337Z,16.47
2018-11-13T04:09:27.754Z,16.47
2018-11-13T04:11:56.203Z,16.46
2018-11-13T04:14:24.612Z,16.45
2018-11-13T04:16:53.057Z,16.44
2018-11-13T04:19:21.503Z,16.45
2018-11-13T04:21:54.609Z,16.43
2018-11-13T04:24:23.036Z,16.43
2018-11-13T04:26:51.491Z,16.44
2018-11-13T04:29:20.118Z,16.42
2018-11-13T04:31:48.567Z,16.42
2018-11-13T04:34:16.989Z,16.41
2018-11-13T04:36:45.558Z,16.36
2018-11-13T04:39:14.071Z,16.32
2018-11-13T04:41:42.528Z,16.28
2018-11-13T04:44:11.033Z,16.27
2018-11-13T04:46:39.626Z,16.23
2018-11-13T04:49:08.095Z,16.17
2018-11-13T04:51:36.580Z,16.13
2018-11-13T04:54:05.436Z,16.10
2018-11-13T04:56:34.024Z,16.06
2018-11-13T04:59:03.117Z,16.00
2018-11-13T05:01:31.558Z,15.94
2018-11-13T05:04:00.000Z,15.91
2018-11-13T05:06:29.080Z,15.88
2018-11-13T05:08:57.769Z,15.86
2018-11-13T05:11:27.054Z,15.85
2018-11-13T05:13:55.530Z,15.86
2018-11-13T05:16:24.043Z,15.87
2018-11-13T05:18:52.440Z,15.87
2018-11-13T05:21:20.849Z,15.87
2018-11-13T05:23:49.276Z,15.86
2018-11-13T05:26:17.726Z,15.87
2018-11-13T05:28:46.425Z,15.88
2018-11-13T05:31:14.841Z,15.87
2018-11-13T05:33:43.275Z,15.84
2018-11-13T05:36:12.045Z,15.82
2018-11-13T05:38:40.466Z,15.78
2018-11-13T05:41:09.051Z,15.75
2018-11-13T05:43:37.483Z,15.75
2018-11-13T05:46:06.169Z,15.72
2018-11-13T05:48:34.807Z,15.67
2018-11-13T05:51:03.345Z,15.62
2018-11-13T05:53:31.775Z,15.56
2018-11-13T05:56:00.185Z,15.53
2018-11-13T05:58:28.804Z,15.47
2018-11-13T06:00:57.339Z,15.43
2018-11-13T06:03:25.760Z,15.39
2018-11-13T06:05:54.337Z,15.35
2018-11-13T06:08:22.776Z,15.33
2018-11-13T06:10:51.255Z,15.33
2018-11-13T06:13:19.675Z,15.33
2018-11-13T06:15:48.279Z,15.35
2018-11-13T06:18:16.903Z,15.36
2018-11-13T06:20:45.316Z,15.36
2018-11-13T06:23:13.805Z,15.34
2018-11-13T06:25:42.182Z,15.33
2018-11-13T06:28:10.979Z,15.32
2018-11-13T06:30:39.437Z,15.30
2018-11-13T06:33:07.838Z,15.30
2018-11-13T06:35:36.259Z,15.28
2018-11-13T06:38:04.860Z,15.24
2018-11-13T06:40:33.284Z,15.19
2018-11-13T06:43:01.941Z,15.16
2018-11-13T06:45:30.372Z,15.13
2018-11-13T06:47:58.716Z,15.10
2018-11-13T06:50:27.297Z,15.09
2018-11-13T06:52:55.706Z,15.08
2018-11-13T06:55:27.187Z,15.06
2018-11-13T06:57:55.647Z,15.02
2018-11-13T07:00:25.001Z,15.02
2018-11-13T07:02:53.431Z,14.99
2018-11-13T07:05:21.801Z,14.99
2018-11-13T07:07:50.575Z,14.97
2018-11-13T07:10:20.450Z,14.96
2018-11-13T07:12:49.655Z,14.95
2018-11-13T07:15:19.450Z,14.94
2018-11-13T07:17:49.052Z,14.93
2018-11-13T07:20:18.590Z,14.93
2018-11-13T07:22:47.071Z,14.91
2018-11-13T07:25:15.555Z,14.91
2018-11-13T07:27:44.767Z,14.91
2018-11-13T07:30:14.454Z,14.90
2018-11-13T07:32:42.989Z,14.88
2018-11-13T07:35:13.556Z,14.84
2018-11-13T07:37:44.778Z,14.81
2018-11-13T07:40:13.246Z,14.80
2018-11-13T07:42:41.743Z,14.79
2018-11-13T07:45:12.718Z,14.80
2018-11-13T07:47:42.177Z,14.77
2018-11-13T07:50:11.339Z,14.80
2018-11-13T07:52:39.720Z,14.79
2018-11-13T07:55:09.698Z,14.76
2018-11-13T07:57:38.198Z,14.75
2018-11-13T08:00:18.047Z,14.74
2018-11-13T08:02:47.852Z,14.73
2018-11-13T08:05:16.453Z,14.74
2018-11-13T08:07:44.934Z,14.71
2018-11-13T08:10:13.616Z,14.68
2018-11-13T08:12:42.092Z,14.65
2018-11-13T08:15:13.250Z,14.62
2018-11-13T08:17:42.138Z,14.62
2018-11-13T08:20:13.032Z,14.60
2018-11-13T08:22:41.862Z,14.57
2018-11-13T08:25:10.937Z,14.55
2018-11-13T08:27:40.062Z,14.55
2018-11-13T08:30:12.616Z,14.55
2018-11-13T08:32:41.434Z,14.57
2018-11-13T08:35:09.957Z,14.58
2018-11-13T08:37:38.507Z,14.55
2018-11-13T08:40:10.556Z,14.55
2018-11-13T08:42:39.070Z,14.51
2018-11-13T08:45:08.639Z,14.48
2018-11-13T08:47:37.071Z,14.47
2018-11-13T08:50:05.939Z,14.44
2018-11-13T08:52:34.373Z,14.45
2018-11-13T08:55:03.080Z,14.46
2018-11-13T08:57:31.561Z,14.47
2018-11-13T09:00:00.106Z,14.48
2018-11-13T09:02:32.264Z,14.49
2018-11-13T09:05:00.865Z,14.50
2018-11-13T09:07:29.294Z,14.51
2018-11-13T09:09:57.721Z,14.55
2018-11-13T09:12:26.248Z,14.59
2018-11-13T09:14:55.000Z,14.61
2018-11-13T09:17:23.433Z,14.63
2018-11-13T09:19:51.862Z,14.65
2018-11-13T09:22:20.263Z,14.68
2018-11-13T09:24:48.645Z,14.69
2018-11-13T09:27:17.101Z,14.71
2018-11-13T09:29:45.528Z,14.71
2018-11-13T09:32:13.916Z,14.71
2018-11-13T09:34:42.339Z,14.69
2018-11-13T09:37:10.777Z,14.70
2018-11-13T09:39:39.167Z,14.71
2018-11-13T09:42:07.619Z,14.72
2018-11-13T09:44:35.991Z,14.73
2018-11-13T09:47:04.678Z,14.74
2018-11-13T09:49:33.088Z,14.78
2018-11-13T09:52:01.508Z,14.80
2018-11-13T09:54:29.966Z,14.83
2018-11-13T09:56:58.418Z,14.87
2018-11-13T09:59:26.880Z,14.91
2018-11-13T10:01:55.689Z,14.93
2018-11-13T10:04:24.284Z,14.93
2018-11-13T10:06:52.164Z,14.96
2018-11-13T10:09:20.601Z,14.97
2018-11-13T10:11:49.057Z,14.98
2018-11-13T10:14:17.455Z,14.99
2018-11-13T10:16:45.851Z,14.99
2018-11-13T10:19:14.264Z,15.00
2018-11-13T10:21:42.641Z,15.03
2018-11-13T10:24:11.047Z,15.07
2018-11-13T10:26:39.440Z,15.10
2018-11-13T10:29:07.865Z,15.13
2018-11-13T10:31:36.242Z,15.17
2018-11-13T10:34:04.783Z,15.20
2018-11-13T10:36:33.179Z,15.22
2018-11-13T10:39:01.593Z,15.21
2018-11-13T10:41:30.238Z,15.20
2018-11-13T10:43:58.509Z,15.15
2018-11-13T10:46:26.926Z,15.11
2018-11-13T10:48:55.417Z,15.09
2018-11-13T10:51:23.751Z,15.07
2018-11-13T10:53:52.141Z,15.04
2018-11-13T10:56:20.544Z,15.03
2018-11-13T10:58:56.087Z,14.98
2018-11-13T11:01:30.280Z,14.95
2018-11-13T11:05:06.406Z,14.96
2018-11-13T11:07:34.802Z,14.91
2018-11-13T11:10:04.097Z,14.89
2018-11-13T11:12:32.533Z,14.87
2018-11-13T11:15:00.919Z,14.87
2018-11-13T11:17:29.335Z,14.87
2018-11-13T11:19:57.752Z,14.90
2018-11-13T11:22:26.599Z,14.93
2018-11-13T11:24:55.286Z,14.97
2018-11-13T11:27:23.704Z,14.99
2018-11-13T11:29:52.685Z,14.99
2018-11-13T11:32:21.131Z,15.00
2018-11-13T11:34:49.586Z,15.02
2018-11-13T11:37:17.992Z,15.05
2018-11-13T11:39:46.450Z,15.08
2018-11-13T11:42:14.862Z,15.13
2018-11-13T11:44:43.332Z,15.19
2018-11-13T11:47:11.762Z,15.20
2018-11-13T11:49:40.202Z,15.22
2018-11-13T11:52:08.623Z,15.25
2018-11-13T11:54:37.047Z,15.28
2018-11-13T11:57:05.757Z,15.33
2018-11-13T11:59:34.145Z,15.36
2018-11-13T12:02:02.645Z,15.40
2018-11-13T12:04:31.068Z,15.45
2018-11-13T12:06:59.685Z,15.49
2018-11-13T12:09:28.079Z,15.55
2018-11-13T12:11:56.679Z,15.59
2018-11-13T12:14:25.527Z,15.73
2018-11-13T12:16:53.942Z,16.11
2018-11-13T12:19:22.378Z,16.41
2018-11-13T12:21:50.935Z,16.76
2018-11-13T12:24:19.724Z,17.23
2018-11-13T12:26:48.149Z,17.62
2018-11-13T12:29:16.549Z,17.82
2018-11-13T12:31:45.000Z,18.04
2018-11-13T12:34:13.680Z,18.25
2018-11-13T12:36:42.059Z,18.38
2018-11-13T12:39:11.176Z,18.47
2018-11-13T12:41:40.824Z,18.67
2018-11-13T12:44:09.577Z,18.94
2018-11-13T12:46:38.277Z,19.24
2018-11-13T12:49:06.626Z,19.63
2018-11-13T12:51:39.639Z,20.06
2018-11-13T12:54:08.134Z,20.39
2018-11-13T12:56:36.596Z,20.43
2018-11-13T12:59:05.091Z,20.47
2018-11-13T13:01:33.497Z,20.43
2018-11-13T13:04:01.945Z,20.66
2018-11-13T13:06:30.324Z,20.84
2018-11-13T13:08:58.711Z,20.98
2018-11-13T13:11:27.134Z,21.11
2018-11-13T13:14:01.177Z,21.19
2018-11-13T13:16:29.600Z,21.07
2018-11-13T13:18:58.041Z,21.06
2018-11-13T13:21:26.421Z,21.05
2018-11-13T13:23:54.862Z,21.24
2018-11-13T13:26:23.471Z,21.51
2018-11-13T13:28:51.931Z,21.80
2018-11-13T13:31:20.356Z,21.90
2018-11-13T13:33:48.786Z,21.88
2018-11-13T13:36:20.579Z,21.89
2018-11-13T13:38:49.260Z,22.06
2018-11-13T13:41:17.619Z,22.27
2018-11-13T13:43:46.050Z,22.53
2018-11-13T13:46:14.531Z,22.70
2018-11-13T13:48:43.264Z,22.85
2018-11-13T13:51:11.709Z,22.80
2018-11-13T13:53:40.230Z,22.72
2018-11-13T13:56:08.649Z,22.61
2018-11-13T13:58:37.053Z,22.47
2018-11-13T14:01:05.648Z,22.09
2018-11-13T14:03:34.784Z,21.79
2018-11-13T14:06:02.610Z,21.56
2018-11-13T14:08:30.984Z,21.37
2018-11-13T14:10:59.446Z,21.34
2018-11-13T14:13:27.871Z,21.47
2018-11-13T14:15:56.420Z,21.58
2018-11-13T14:18:24.834Z,21.64
2018-11-13T14:20:53.282Z,21.58
2018-11-13T14:23:21.685Z,21.50
2018-11-13T14:25:50.089Z,21.40
2018-11-13T14:28:18.526Z,21.24
2018-11-13T14:30:47.027Z,21.41
2018-11-13T14:33:15.447Z,21.63
2018-11-13T14:35:44.002Z,21.63
2018-11-13T14:38:12.334Z,21.69
2018-11-13T14:40:42.055Z,21.85
2018-11-13T14:43:10.754Z,21.87
2018-11-13T14:45:39.230Z,21.90
2018-11-13T14:48:08.524Z,21.96
2018-11-13T14:50:37.457Z,21.99
2018-11-13T14:53:07.040Z,22.11
2018-11-13T14:55:36.942Z,22.12
2018-11-13T14:58:07.312Z,22.07
2018-11-13T15:00:42.735Z,22.00
2018-11-13T15:03:12.616Z,21.90
2018-11-13T15:05:41.968Z,21.86
2018-11-13T15:08:10.841Z,21.78
2018-11-13T15:10:47.724Z,21.73
2018-11-13T15:13:16.594Z,21.64
2018-11-13T15:15:45.036Z,21.55
2018-11-13T15:18:17.497Z,21.43
2018-11-13T15:20:46.675Z,21.32
2018-11-13T15:23:16.424Z,21.22
2018-11-13T15:25:44.872Z,21.11
2018-11-13T15:28:13.629Z,21.01
2018-11-13T15:30:46.130Z,20.93
2018-11-13T15:33:20.775Z,20.85
2018-11-13T15:35:49.870Z,20.69
2018-11-13T15:38:18.386Z,20.56
2018-11-13T15:40:46.923Z,20.45
2018-11-13T15:43:15.381Z,20.36
2018-11-13T15:45:43.809Z,20.28
2018-11-13T15:48:13.174Z,20.20
2018-11-13T15:50:41.595Z,20.10
2018-11-13T15:53:10.452Z,20.02
2018-11-13T15:55:38.927Z,19.92
2018-11-13T15:58:07.739Z,19.82
2018-11-13T16:00:37.523Z,19.71
2018-11-13T16:03:15.929Z,19.58
2018-11-13T16:05:46.839Z,19.47
2018-11-13T16:08:15.269Z,19.32
2018-11-13T16:10:43.717Z,19.17
2018-11-13T16:13:12.321Z,18.99
2018-11-13T16:15:41.247Z,18.83
2018-11-13T16:18:11.695Z,18.67
2018-11-13T16:20:40.140Z,18.51
2018-11-13T16:23:08.643Z,18.31
2018-11-13T16:25:37.118Z,18.14
2018-11-13T16:28:05.642Z,17.98
2018-11-13T16:30:35.479Z,17.85
2018-11-13T16:33:04.118Z,17.72
2018-11-13T16:35:32.862Z,17.61
2018-11-13T16:38:02.798Z,17.47
2018-11-13T16:40:32.228Z,17.31
2018-11-13T16:43:01.075Z,17.10
2018-11-13T16:45:30.620Z,16.91
2018-11-13T16:47:59.672Z,16.76
2018-11-13T16:50:29.313Z,16.64
2018-11-13T16:52:58.332Z,16.54
2018-11-13T16:55:32.649Z,16.45
2018-11-13T16:58:02.325Z,16.32
2018-11-13T17:00:31.350Z,16.17
2018-11-13T17:03:00.088Z,16.07
2018-11-13T17:05:29.209Z,15.98
2018-11-13T17:07:57.686Z,15.90
2018-11-13T17:10:27.386Z,15.80
2018-11-13T17:12:56.453Z,15.73
2018-11-13T17:15:26.205Z,15.67
2018-11-13T17:17:55.794Z,15.56
2018-11-13T17:20:24.906Z,15.47
2018-11-13T17:22:53.359Z,15.40
2018-11-13T17:25:23.317Z,15.29
2018-11-13T17:27:52.715Z,15.20
2018-11-13T17:30:24.968Z,15.11
2018-11-13T17:32:54.652Z,15.01
2018-11-13T17:35:24.393Z,14.94
2018-11-13T17:37:54.313Z,14.84
2018-11-13T17:40:24.011Z,14.77
2018-11-13T17:42:53.853Z,14.71
2018-11-13T17:45:24.757Z,14.64
2018-11-13T17:47:53.227Z,14.56
2018-11-13T17:50:24.848Z,14.46
2018-11-13T17:52:53.370Z,14.41
2018-11-13T17:55:23.023Z,14.34
2018-11-13T17:57:54.663Z,14.27
2018-11-13T18:00:26.972Z,14.18
2018-11-13T18:02:55.750Z,14.12
2018-11-13T18:05:25.388Z,14.08
2018-11-13T18:07:54.639Z,14.03
2018-11-13T18:10:23.341Z,13.98
2018-11-13T18:12:52.047Z,13.90
2018-11-13T18:15:22.946Z,13.87
2018-11-13T18:17:52.016Z,13.82
2018-11-13T18:20:23.102Z,13.79
2018-11-13T18:22:51.715Z,13.73
2018-11-13T18:25:20.211Z,13.70
2018-11-13T18:27:50.116Z,13.65
2018-11-13T18:30:21.854Z,13.62
2018-11-13T18:32:50.602Z,13.57
2018-11-13T18:35:22.191Z,13.55
2018-11-13T18:37:51.652Z,13.53
2018-11-13T18:40:20.885Z,13.50
2018-11-13T18:42:50.284Z,13.46
2018-11-13T18:45:21.960Z,13.41
2018-11-13T18:47:50.704Z,13.32
2018-11-13T18:50:23.834Z,13.28
2018-11-13T18:52:52.266Z,13.24
2018-11-13T18:55:20.841Z,13.18
2018-11-13T18:57:49.288Z,13.17
2018-11-13T19:00:24.437Z,13.14
2018-11-13T19:02:52.975Z,13.12
2018-11-13T19:05:22.053Z,13.09
2018-11-13T19:07:50.717Z,13.06
2018-11-13T19:10:25.470Z,13.04
2018-11-13T19:12:55.644Z,12.99
2018-11-13T19:15:24.565Z,12.98
2018-11-13T19:17:53.594Z,12.94
2018-11-13T19:20:23.193Z,12.90
2018-11-13T19:22:52.067Z,12.86
2018-11-13T19:25:22.024Z,12.84
2018-11-13T19:27:51.017Z,12.80
2018-11-13T19:30:20.463Z,12.78
2018-11-13T19:32:48.792Z,12.74
2018-11-13T19:35:18.543Z,12.70
2018-11-13T19:37:47.136Z,12.67
2018-11-13T19:40:19.315Z,12.63
2018-11-13T19:42:48.601Z,12.58
2018-11-13T19:45:17.633Z,12.54
2018-11-13T19:47:46.216Z,12.51
2018-11-13T19:50:20.863Z,12.50
2018-11-13T19:52:49.352Z,12.48
2018-11-13T19:55:18.563Z,12.47
2018-11-13T19:57:47.361Z,12.45
2018-11-13T20:00:18.279Z,12.43
2018-11-13T20:02:47.795Z,12.40
2018-11-13T20:05:16.534Z,12.36
2018-11-13T20:07:45.947Z,12.34
2018-11-13T20:10:21.103Z,12.31
2018-11-13T20:12:50.644Z,12.28
2018-11-13T20:15:20.098Z,12.23
2018-11-13T20:17:48.630Z,12.19
2018-11-13T20:20:19.228Z,12.16
2018-11-13T20:22:48.794Z,12.16
2018-11-13T20:25:18.654Z,12.15
2018-11-13T20:27:47.499Z,12.09
2018-11-13T20:30:22.969Z,12.05
2018-11-13T20:32:51.454Z,12.01
2018-11-13T20:35:19.948Z,11.98
2018-11-13T20:37:49.172Z,11.96
2018-11-13T20:40:23.105Z,11.94
2018-11-13T20:42:53.040Z,11.91
2018-11-13T20:45:22.129Z,11.89
2018-11-13T20:47:50.693Z,11.86
2018-11-13T20:50:23.682Z,11.85
2018-11-13T20:52:52.174Z,11.82
2018-11-13T20:55:20.658Z,11.77
2018-11-13T20:57:49.102Z,11.74
2018-11-13T21:00:27.223Z,11.70
2018-11-13T21:02:55.764Z,11.67
2018-11-13T21:05:24.305Z,11.63
2018-11-13T21:07:52.857Z,11.61
2018-11-13T21:10:22.066Z,11.58
2018-11-13T21:12:51.576Z,11.53
2018-11-13T21:15:21.001Z,11.52
2018-11-13T21:17:49.466Z,11.47
2018-11-13T21:20:18.751Z,11.43
2018-11-13T21:22:47.375Z,11.40
2018-11-13T21:25:18.568Z,11.37
2018-11-13T21:27:55.466Z,11.36
2018-11-13T21:30:24.339Z,11.33
2018-11-13T21:32:53.132Z,11.30
2018-11-13T21:35:21.593Z,11.27
2018-11-13T21:37:51.350Z,11.23
2018-11-13T21:40:21.162Z,11.21
2018-11-13T21:42:50.724Z,11.21
2018-11-13T21:45:20.255Z,11.20
2018-11-13T21:47:48.774Z,11.17
2018-11-13T21:50:18.480Z,11.15
2018-11-13T21:52:46.929Z,11.14
2018-11-13T21:55:17.634Z,11.11
2018-11-13T21:57:46.260Z,11.10
2018-11-13T22:00:20.451Z,11.08
2018-11-13T22:02:51.610Z,11.06
2018-11-13T22:05:20.816Z,11.05
2018-11-13T22:07:49.254Z,11.01
2018-11-13T22:10:17.813Z,10.98
2018-11-13T22:12:46.735Z,10.96
2018-11-13T22:15:16.728Z,10.94
2018-11-13T22:17:45.593Z,10.90
2018-11-13T22:20:14.897Z,10.86
2018-11-13T22:22:43.535Z,10.83
2018-11-13T22:25:15.820Z,10.78
2018-11-13T22:27:45.474Z,10.76
2018-11-13T22:30:18.046Z,10.73
2018-11-13T22:32:46.811Z,10.73
2018-11-13T22:35:15.709Z,10.74
2018-11-13T22:37:44.357Z,10.75
2018-11-13T22:40:17.036Z,10.72
2018-11-13T22:42:45.763Z,10.70
2018-11-13T22:45:16.193Z,10.70
2018-11-13T22:47:44.585Z,10.67
2018-11-13T22:50:18.458Z,10.65
2018-11-13T22:52:47.190Z,10.62
2018-11-13T22:55:15.964Z,10.61
2018-11-13T22:57:45.210Z,10.60
2018-11-13T23:00:36.365Z,10.59
2018-11-13T23:03:08.038Z,10.57
2018-11-13T23:05:36.520Z,10.56
2018-11-13T23:08:06.025Z,10.54
2018-11-13T23:10:34.439Z,10.52
2018-11-13T23:13:03.432Z,10.50
2018-11-13T23:15:31.642Z,10.52
2018-11-13T23:18:00.106Z,10.51
2018-11-13T23:20:28.707Z,10.53
2018-11-13T23:22:57.369Z,10.49
2018-11-13T23:25:25.809Z,10.49
2018-11-13T23:27:54.291Z,10.48
2018-11-13T23:30:23.945Z,10.48
2018-11-13T23:32:52.913Z,10.47
2018-11-13T23:35:21.830Z,10.44
2018-11-13T23:37:51.501Z,10.41
2018-11-13T23:40:21.880Z,10.42
2018-11-13T23:42:50.708Z,10.38
2018-11-13T23:45:20.558Z,10.36
2018-11-13T23:47:49.335Z,10.35
2018-11-13T23:50:18.014Z,10.34
2018-11-13T23:52:47.306Z,10.34
2018-11-13T23:55:16.342Z,10.35
2018-11-13T23:57:45.299Z,10.34
